Terminal Aerodrome Forecast
Issued by NWS Cleveland, OH

Home | Current Version | Previous Version | Text Only | Print | Product List | Glossary Off
Versions: 1 2 3 4 5 6 7 8 9 10 11 12 13 14 15 16 17 18 19 20 21 22 23 24 25 26 27 28 29

000
FTUS41 KCLE 190213 AAB
TAFCLE
TAF AMD
KCLE 190213Z 1902/2006 32020G32KT 3SM -SHRA OVC005
     FM190600 31020G35KT 6SM -SHRA OVC008
     FM190800 31020G38KT P6SM VCSH OVC015
     FM191300 30018G30KT P6SM OVC025=

USA.gov is the U.S. government's official web portal to all federal, state and local government web resources and services.